sensor_id;sensor_type;location;lat;lon;timestamp;pressure;altitude;pressure_sealevel;temperature
33267;BMP180;19638;49.080;11.896;2023-01-23T00:02:59;97354.00;;;2.00
33267;BMP180;19638;49.080;11.896;2023-01-23T00:07:04;97368.00;;;2.00
33267;BMP180;19638;49.080;11.896;2023-01-23T00:11:09;97365.00;;;2.00
33267;BMP180;19638;49.080;11.896;2023-01-23T00:15:13;97371.00;;;2.00
33267;BMP180;19638;49.080;11.896;2023-01-23T00:19:18;97378.00;;;2.10
33267;BMP180;19638;49.080;11.896;2023-01-23T00:23:24;97387.00;;;2.00
33267;BMP180;19638;49.080;11.896;2023-01-23T00:27:27;97378.00;;;2.00
33267;BMP180;19638;49.080;11.896;2023-01-23T00:31:32;97379.00;;;2.00
33267;BMP180;19638;49.080;11.896;2023-01-23T00:35:39;97369.00;;;2.00
33267;BMP180;19638;49.080;11.896;2023-01-23T00:39:44;97371.00;;;2.00
33267;BMP180;19638;49.080;11.896;2023-01-23T00:43:48;97357.00;;;2.00
33267;BMP180;19638;49.080;11.896;2023-01-23T00:47:54;97364.00;;;2.00
33267;BMP180;19638;49.080;11.896;2023-01-23T00:52:01;97376.00;;;1.90
33267;BMP180;19638;49.080;11.896;2023-01-23T00:56:07;97371.00;;;1.90
33267;BMP180;19638;49.080;11.896;2023-01-23T01:00:11;97368.00;;;1.90
33267;BMP180;19638;49.080;11.896;2023-01-23T01:04:17;97373.00;;;1.90
33267;BMP180;19638;49.080;11.896;2023-01-23T01:08:21;97377.00;;;1.90
33267;BMP180;19638;49.080;11.896;2023-01-23T01:12:24;97381.00;;;1.80
33267;BMP180;19638;49.080;11.896;2023-01-23T01:20:56;97391.00;;;1.80
33267;BMP180;19638;49.080;11.896;2023-01-23T01:25:05;97390.00;;;1.80
33267;BMP180;19638;49.080;11.896;2023-01-23T01:29:08;97405.00;;;1.80
33267;BMP180;19638;49.080;11.896;2023-01-23T01:33:15;97410.00;;;1.80
33267;BMP180;19638;49.080;11.896;2023-01-23T01:37:19;97398.00;;;1.80
33267;BMP180;19638;49.080;11.896;2023-01-23T01:41:25;97405.00;;;1.80
33267;BMP180;19638;49.080;11.896;2023-01-23T01:46:08;97393.00;;;1.80
33267;BMP180;19638;49.080;11.896;2023-01-23T01:50:12;97393.00;;;1.70
33267;BMP180;19638;49.080;11.896;2023-01-23T01:54:23;97399.00;;;1.70
33267;BMP180;19638;49.080;11.896;2023-01-23T01:58:32;97392.00;;;1.60
33267;BMP180;19638;49.080;11.896;2023-01-23T02:02:41;97395.00;;;1.60
33267;BMP180;19638;49.080;11.896;2023-01-23T02:06:45;97383.00;;;1.60
33267;BMP180;19638;49.080;11.896;2023-01-23T02:10:50;97389.00;;;1.60
33267;BMP180;19638;49.080;11.896;2023-01-23T02:14:55;97390.00;;;1.60
33267;BMP180;19638;49.080;11.896;2023-01-23T02:19:00;97387.00;;;1.60
33267;BMP180;19638;49.080;11.896;2023-01-23T02:23:10;97397.00;;;1.60
33267;BMP180;19638;49.080;11.896;2023-01-23T02:27:20;97400.00;;;1.60
33267;BMP180;19638;49.080;11.896;2023-01-23T02:31:25;97391.00;;;1.60
33267;BMP180;19638;49.080;11.896;2023-01-23T02:35:32;97387.00;;;1.50
33267;BMP180;19638;49.080;11.896;2023-01-23T02:39:37;97379.00;;;1.60
33267;BMP180;19638;49.080;11.896;2023-01-23T02:43:42;97385.00;;;1.50
33267;BMP180;19638;49.080;11.896;2023-01-23T02:47:46;97390.00;;;1.40
33267;BMP180;19638;49.080;11.896;2023-01-23T02:51:50;97388.00;;;1.40
33267;BMP180;19638;49.080;11.896;2023-01-23T02:55:56;97394.00;;;1.40
33267;BMP180;19638;49.080;11.896;2023-01-23T03:00:03;97384.00;;;1.30
33267;BMP180;19638;49.080;11.896;2023-01-23T03:04:31;97386.00;;;1.30
33267;BMP180;19638;49.080;11.896;2023-01-23T03:08:34;97378.00;;;1.30
33267;BMP180;19638;49.080;11.896;2023-01-23T03:12:48;97383.00;;;1.30
33267;BMP180;19638;49.080;11.896;2023-01-23T03:16:56;97384.00;;;1.30
33267;BMP180;19638;49.080;11.896;2023-01-23T03:21:04;97387.00;;;1.40
33267;BMP180;19638;49.080;11.896;2023-01-23T03:25:08;97379.00;;;1.30
33267;BMP180;19638;49.080;11.896;2023-01-23T03:29:13;97385.00;;;1.30
33267;BMP180;19638;49.080;11.896;2023-01-23T03:33:39;97383.00;;;1.20
33267;BMP180;19638;49.080;11.896;2023-01-23T03:37:44;97367.00;;;1.00
33267;BMP180;19638;49.080;11.896;2023-01-23T03:41:48;97378.00;;;0.90
33267;BMP180;19638;49.080;11.896;2023-01-23T03:45:50;97384.00;;;1.00
33267;BMP180;19638;49.080;11.896;2023-01-23T03:49:54;97376.00;;;1.00
33267;BMP180;19638;49.080;11.896;2023-01-23T03:53:58;97383.00;;;1.10
33267;BMP180;19638;49.080;11.896;2023-01-23T03:58:01;97387.00;;;1.10
33267;BMP180;19638;49.080;11.896;2023-01-23T04:02:04;97410.00;;;1.20
33267;BMP180;19638;49.080;11.896;2023-01-23T04:06:12;97397.00;;;1.30
33267;BMP180;19638;49.080;11.896;2023-01-23T04:10:15;97392.00;;;1.30
33267;BMP180;19638;49.080;11.896;2023-01-23T04:14:23;97391.00;;;1.30
33267;BMP180;19638;49.080;11.896;2023-01-23T04:18:28;97402.00;;;1.30
33267;BMP180;19638;49.080;11.896;2023-01-23T04:22:33;97402.00;;;1.20
33267;BMP180;19638;49.080;11.896;2023-01-23T04:26:36;97402.00;;;1.20
33267;BMP180;19638;49.080;11.896;2023-01-23T04:30:39;97401.00;;;1.20
33267;BMP180;19638;49.080;11.896;2023-01-23T04:34:42;97399.00;;;1.20
33267;BMP180;19638;49.080;11.896;2023-01-23T04:38:48;97399.00;;;1.30
33267;BMP180;19638;49.080;11.896;2023-01-23T04:42:51;97397.00;;;1.30
33267;BMP180;19638;49.080;11.896;2023-01-23T04:46:54;97395.00;;;1.20
33267;BMP180;19638;49.080;11.896;2023-01-23T04:50:57;97397.00;;;1.20
33267;BMP180;19638;49.080;11.896;2023-01-23T04:55:04;97401.00;;;1.20
33267;BMP180;19638;49.080;11.896;2023-01-23T04:59:08;97392.00;;;1.10
33267;BMP180;19638;49.080;11.896;2023-01-23T05:03:11;97402.00;;;1.20
33267;BMP180;19638;49.080;11.896;2023-01-23T05:07:17;97400.00;;;1.20
33267;BMP180;19638;49.080;11.896;2023-01-23T05:11:21;97405.00;;;1.20
33267;BMP180;19638;49.080;11.896;2023-01-23T05:20:08;97421.00;;;1.20
33267;BMP180;19638;49.080;11.896;2023-01-23T05:24:11;97420.00;;;1.20
33267;BMP180;19638;49.080;11.896;2023-01-23T05:28:16;97422.00;;;1.20
33267;BMP180;19638;49.080;11.896;2023-01-23T05:32:19;97424.00;;;1.20
33267;BMP180;19638;49.080;11.896;2023-01-23T05:36:24;97426.00;;;1.30
33267;BMP180;19638;49.080;11.896;2023-01-23T05:40:27;97434.00;;;1.20
33267;BMP180;19638;49.080;11.896;2023-01-23T05:44:31;97432.00;;;1.20
33267;BMP180;19638;49.080;11.896;2023-01-23T05:48:34;97436.00;;;1.20
33267;BMP180;19638;49.080;11.896;2023-01-23T05:52:37;97442.00;;;1.10
33267;BMP180;19638;49.080;11.896;2023-01-23T05:56:40;97447.00;;;1.10
33267;BMP180;19638;49.080;11.896;2023-01-23T06:00:45;97455.00;;;1.10
33267;BMP180;19638;49.080;11.896;2023-01-23T06:04:56;97463.00;;;1.10
33267;BMP180;19638;49.080;11.896;2023-01-23T06:09:00;97474.00;;;1.10
33267;BMP180;19638;49.080;11.896;2023-01-23T06:13:06;97484.00;;;1.10
33267;BMP180;19638;49.080;11.896;2023-01-23T06:17:11;97495.00;;;1.20
33267;BMP180;19638;49.080;11.896;2023-01-23T06:21:17;97494.00;;;1.20
33267;BMP180;19638;49.080;11.896;2023-01-23T06:25:22;97492.00;;;1.20
33267;BMP180;19638;49.080;11.896;2023-01-23T06:29:25;97495.00;;;1.30
33267;BMP180;19638;49.080;11.896;2023-01-23T06:33:29;97509.00;;;1.20
33267;BMP180;19638;49.080;11.896;2023-01-23T06:37:32;97499.00;;;1.20
33267;BMP180;19638;49.080;11.896;2023-01-23T06:41:35;97509.00;;;1.10
33267;BMP180;19638;49.080;11.896;2023-01-23T06:45:38;97519.00;;;1.20
33267;BMP180;19638;49.080;11.896;2023-01-23T06:49:44;97512.00;;;1.20
33267;BMP180;19638;49.080;11.896;2023-01-23T06:53:47;97518.00;;;1.20
33267;BMP180;19638;49.080;11.896;2023-01-23T06:57:50;97525.00;;;1.20
33267;BMP180;19638;49.080;11.896;2023-01-23T07:02:01;97527.00;;;1.10
33267;BMP180;19638;49.080;11.896;2023-01-23T07:06:09;97535.00;;;1.10
33267;BMP180;19638;49.080;11.896;2023-01-23T07:10:12;97548.00;;;1.10
33267;BMP180;19638;49.080;11.896;2023-01-23T07:14:15;97540.00;;;1.10
33267;BMP180;19638;49.080;11.896;2023-01-23T07:18:18;97526.00;;;1.10
33267;BMP180;19638;49.080;11.896;2023-01-23T07:22:22;97539.00;;;1.20
33267;BMP180;19638;49.080;11.896;2023-01-23T07:26:26;97531.00;;;1.20
33267;BMP180;19638;49.080;11.896;2023-01-23T07:30:29;97533.00;;;1.20
33267;BMP180;19638;49.080;11.896;2023-01-23T07:34:35;97535.00;;;1.30
33267;BMP180;19638;49.080;11.896;2023-01-23T07:38:42;97531.00;;;1.30
33267;BMP180;19638;49.080;11.896;2023-01-23T07:42:45;97521.00;;;1.40
33267;BMP180;19638;49.080;11.896;2023-01-23T07:46:55;97526.00;;;1.50
33267;BMP180;19638;49.080;11.896;2023-01-23T07:51:01;97534.00;;;1.50
33267;BMP180;19638;49.080;11.896;2023-01-23T07:55:06;97539.00;;;1.60
33267;BMP180;19638;49.080;11.896;2023-01-23T07:59:10;97549.00;;;1.60
33267;BMP180;19638;49.080;11.896;2023-01-23T08:03:13;97546.00;;;1.70
33267;BMP180;19638;49.080;11.896;2023-01-23T08:07:16;97553.00;;;1.70
33267;BMP180;19638;49.080;11.896;2023-01-23T08:11:21;97542.00;;;1.80
33267;BMP180;19638;49.080;11.896;2023-01-23T08:15:29;97544.00;;;1.80
33267;BMP180;19638;49.080;11.896;2023-01-23T08:19:34;97558.00;;;1.80
33267;BMP180;19638;49.080;11.896;2023-01-23T08:23:37;97564.00;;;2.00
33267;BMP180;19638;49.080;11.896;2023-01-23T08:27:42;97574.00;;;2.00
33267;BMP180;19638;49.080;11.896;2023-01-23T08:31:45;97577.00;;;2.10
33267;BMP180;19638;49.080;11.896;2023-01-23T08:35:55;97573.00;;;2.10
33267;BMP180;19638;49.080;11.896;2023-01-23T08:40:05;97563.00;;;2.30
33267;BMP180;19638;49.080;11.896;2023-01-23T08:44:09;97568.00;;;2.40
33267;BMP180;19638;49.080;11.896;2023-01-23T08:48:13;97577.00;;;2.50
33267;BMP180;19638;49.080;11.896;2023-01-23T08:52:18;97564.00;;;2.40
33267;BMP180;19638;49.080;11.896;2023-01-23T08:56:23;97570.00;;;2.40
33267;BMP180;19638;49.080;11.896;2023-01-23T09:00:34;97570.00;;;2.40
33267;BMP180;19638;49.080;11.896;2023-01-23T09:04:40;97570.00;;;2.40
33267;BMP180;19638;49.080;11.896;2023-01-23T09:08:44;97576.00;;;2.40
33267;BMP180;19638;49.080;11.896;2023-01-23T09:12:49;97578.00;;;2.50
33267;BMP180;19638;49.080;11.896;2023-01-23T09:16:55;97575.00;;;2.50
33267;BMP180;19638;49.080;11.896;2023-01-23T09:20:59;97583.00;;;2.50
33267;BMP180;19638;49.080;11.896;2023-01-23T09:25:10;97579.00;;;2.70
33267;BMP180;19638;49.080;11.896;2023-01-23T09:29:15;97568.00;;;2.80
33267;BMP180;19638;49.080;11.896;2023-01-23T09:33:20;97574.00;;;2.90
33267;BMP180;19638;49.080;11.896;2023-01-23T09:37:31;97569.00;;;2.80
33267;BMP180;19638;49.080;11.896;2023-01-23T09:42:03;97571.00;;;2.80
33267;BMP180;19638;49.080;11.896;2023-01-23T09:46:15;97571.00;;;2.80
33267;BMP180;19638;49.080;11.896;2023-01-23T09:50:27;97569.00;;;2.70
33267;BMP180;19638;49.080;11.896;2023-01-23T09:54:38;97557.00;;;2.70
33267;BMP180;19638;49.080;11.896;2023-01-23T09:58:55;97551.00;;;2.70
33267;BMP180;19638;49.080;11.896;2023-01-23T10:03:10;97566.00;;;2.70
33267;BMP180;19638;49.080;11.896;2023-01-23T10:07:38;97563.00;;;2.80
33267;BMP180;19638;49.080;11.896;2023-01-23T10:11:51;97550.00;;;2.90
33267;BMP180;19638;49.080;11.896;2023-01-23T10:16:11;97549.00;;;2.90
33267;BMP180;19638;49.080;11.896;2023-01-23T10:25:08;97537.00;;;2.80
33267;BMP180;19638;49.080;11.896;2023-01-23T10:29:18;97537.00;;;2.80
33267;BMP180;19638;49.080;11.896;2023-01-23T10:33:28;97534.00;;;2.90
33267;BMP180;19638;49.080;11.896;2023-01-23T10:37:42;97537.00;;;2.90
33267;BMP180;19638;49.080;11.896;2023-01-23T10:41:47;97526.00;;;3.00
33267;BMP180;19638;49.080;11.896;2023-01-23T10:46:08;97536.00;;;2.90
33267;BMP180;19638;49.080;11.896;2023-01-23T10:50:12;97530.00;;;3.00
33267;BMP180;19638;49.080;11.896;2023-01-23T10:54:17;97522.00;;;3.00
33267;BMP180;19638;49.080;11.896;2023-01-23T10:58:37;97523.00;;;3.20
33267;BMP180;19638;49.080;11.896;2023-01-23T11:02:41;97517.00;;;3.50
33267;BMP180;19638;49.080;11.896;2023-01-23T11:06:59;97505.00;;;3.70
33267;BMP180;19638;49.080;11.896;2023-01-23T11:11:20;97490.00;;;3.60
33267;BMP180;19638;49.080;11.896;2023-01-23T11:15:27;97489.00;;;3.50
33267;BMP180;19638;49.080;11.896;2023-01-23T11:19:32;97480.00;;;3.40
33267;BMP180;19638;49.080;11.896;2023-01-23T11:23:44;97486.00;;;3.50
33267;BMP180;19638;49.080;11.896;2023-01-23T11:27:56;97467.00;;;3.60
33267;BMP180;19638;49.080;11.896;2023-01-23T11:32:07;97475.00;;;3.50
33267;BMP180;19638;49.080;11.896;2023-01-23T11:36:47;97460.00;;;3.30
33267;BMP180;19638;49.080;11.896;2023-01-23T11:40:52;97451.00;;;3.30
33267;BMP180;19638;49.080;11.896;2023-01-23T11:44:58;97440.00;;;3.30
33267;BMP180;19638;49.080;11.896;2023-01-23T11:49:30;97448.00;;;3.40
33267;BMP180;19638;49.080;11.896;2023-01-23T11:53:43;97439.00;;;3.60
33267;BMP180;19638;49.080;11.896;2023-01-23T11:58:02;97435.00;;;3.70
33267;BMP180;19638;49.080;11.896;2023-01-23T12:07:08;97427.00;;;3.60
33267;BMP180;19638;49.080;11.896;2023-01-23T12:11:14;97426.00;;;3.80
33267;BMP180;19638;49.080;11.896;2023-01-23T12:15:31;97432.00;;;3.90
33267;BMP180;19638;49.080;11.896;2023-01-23T12:19:48;97417.00;;;4.00
33267;BMP180;19638;49.080;11.896;2023-01-23T12:24:08;97418.00;;;4.10
33267;BMP180;19638;49.080;11.896;2023-01-23T12:28:28;97421.00;;;4.20
33267;BMP180;19638;49.080;11.896;2023-01-23T12:32:44;97424.00;;;4.30
33267;BMP180;19638;49.080;11.896;2023-01-23T12:37:11;97414.00;;;4.00
33267;BMP180;19638;49.080;11.896;2023-01-23T12:41:33;97405.00;;;3.90
33267;BMP180;19638;49.080;11.896;2023-01-23T12:45:44;97406.00;;;4.00
33267;BMP180;19638;49.080;11.896;2023-01-23T12:49:54;97398.00;;;4.10
33267;BMP180;19638;49.080;11.896;2023-01-23T12:53:59;97397.00;;;4.20
33267;BMP180;19638;49.080;11.896;2023-01-23T12:58:16;97391.00;;;4.10
33267;BMP180;19638;49.080;11.896;2023-01-23T13:02:28;97381.00;;;3.90
33267;BMP180;19638;49.080;11.896;2023-01-23T13:06:51;97380.00;;;3.80
33267;BMP180;19638;49.080;11.896;2023-01-23T13:11:08;97386.00;;;3.80
33267;BMP180;19638;49.080;11.896;2023-01-23T13:15:33;97386.00;;;3.80
33267;BMP180;19638;49.080;11.896;2023-01-23T13:19:44;97394.00;;;3.90
33267;BMP180;19638;49.080;11.896;2023-01-23T13:24:28;97388.00;;;4.00
33267;BMP180;19638;49.080;11.896;2023-01-23T13:28:54;97397.00;;;4.10
33267;BMP180;19638;49.080;11.896;2023-01-23T13:33:00;97388.00;;;4.20
33267;BMP180;19638;49.080;11.896;2023-01-23T13:37:47;97391.00;;;4.30
33267;BMP180;19638;49.080;11.896;2023-01-23T13:42:32;97374.00;;;4.20
33267;BMP180;19638;49.080;11.896;2023-01-23T13:46:51;97374.00;;;4.00
33267;BMP180;19638;49.080;11.896;2023-01-23T13:51:19;97373.00;;;3.90
33267;BMP180;19638;49.080;11.896;2023-01-23T13:55:40;97388.00;;;3.80
33267;BMP180;19638;49.080;11.896;2023-01-23T14:00:18;97392.00;;;3.80
33267;BMP180;19638;49.080;11.896;2023-01-23T14:04:40;97383.00;;;3.80
33267;BMP180;19638;49.080;11.896;2023-01-23T14:09:20;97384.00;;;3.80
33267;BMP180;19638;49.080;11.896;2023-01-23T14:13:45;97376.00;;;3.80
33267;BMP180;19638;49.080;11.896;2023-01-23T14:18:03;97391.00;;;3.80
33267;BMP180;19638;49.080;11.896;2023-01-23T14:22:20;97403.00;;;3.80
33267;BMP180;19638;49.080;11.896;2023-01-23T14:26:29;97389.00;;;3.70
33267;BMP180;19638;49.080;11.896;2023-01-23T14:30:35;97389.00;;;3.70
33267;BMP180;19638;49.080;11.896;2023-01-23T14:34:38;97396.00;;;3.60
33267;BMP180;19638;49.080;11.896;2023-01-23T14:38:43;97404.00;;;3.50
33267;BMP180;19638;49.080;11.896;2023-01-23T14:42:54;97388.00;;;3.40
33267;BMP180;19638;49.080;11.896;2023-01-23T14:46:59;97397.00;;;3.30
33267;BMP180;19638;49.080;11.896;2023-01-23T14:51:15;97401.00;;;3.30
33267;BMP180;19638;49.080;11.896;2023-01-23T14:55:22;97398.00;;;3.20
33267;BMP180;19638;49.080;11.896;2023-01-23T14:59:34;97402.00;;;3.20
33267;BMP180;19638;49.080;11.896;2023-01-23T15:03:42;97409.00;;;3.20
33267;BMP180;19638;49.080;11.896;2023-01-23T15:07:49;97422.00;;;3.30
33267;BMP180;19638;49.080;11.896;2023-01-23T15:12:03;97426.00;;;3.20
33267;BMP180;19638;49.080;11.896;2023-01-23T15:16:18;97434.00;;;3.20
33267;BMP180;19638;49.080;11.896;2023-01-23T15:20:31;97436.00;;;3.20
33267;BMP180;19638;49.080;11.896;2023-01-23T15:24:37;97431.00;;;3.10
33267;BMP180;19638;49.080;11.896;2023-01-23T15:28:48;97419.00;;;3.20
33267;BMP180;19638;49.080;11.896;2023-01-23T15:32:56;97419.00;;;3.10
33267;BMP180;19638;49.080;11.896;2023-01-23T15:37:04;97425.00;;;3.10
33267;BMP180;19638;49.080;11.896;2023-01-23T15:41:11;97428.00;;;3.00
33267;BMP180;19638;49.080;11.896;2023-01-23T15:45:21;97415.00;;;3.00
33267;BMP180;19638;49.080;11.896;2023-01-23T15:49:26;97400.00;;;2.90
33267;BMP180;19638;49.080;11.896;2023-01-23T15:53:31;97416.00;;;2.80
33267;BMP180;19638;49.080;11.896;2023-01-23T15:57:34;97408.00;;;2.80
33267;BMP180;19638;49.080;11.896;2023-01-23T16:01:39;97402.00;;;2.70
33267;BMP180;19638;49.080;11.896;2023-01-23T16:05:46;97421.00;;;2.70
33267;BMP180;19638;49.080;11.896;2023-01-23T16:09:51;97420.00;;;2.70
33267;BMP180;19638;49.080;11.896;2023-01-23T16:13:58;97423.00;;;2.80
33267;BMP180;19638;49.080;11.896;2023-01-23T16:18:06;97427.00;;;2.80
33267;BMP180;19638;49.080;11.896;2023-01-23T16:22:14;97438.00;;;2.80
33267;BMP180;19638;49.080;11.896;2023-01-23T16:26:21;97444.00;;;2.80
33267;BMP180;19638;49.080;11.896;2023-01-23T16:30:28;97447.00;;;2.80
33267;BMP180;19638;49.080;11.896;2023-01-23T16:34:34;97453.00;;;2.80
33267;BMP180;19638;49.080;11.896;2023-01-23T16:38:39;97445.00;;;2.80
33267;BMP180;19638;49.080;11.896;2023-01-23T16:42:47;97447.00;;;2.80
33267;BMP180;19638;49.080;11.896;2023-01-23T16:46:54;97452.00;;;2.80
33267;BMP180;19638;49.080;11.896;2023-01-23T16:51:00;97450.00;;;2.80
33267;BMP180;19638;49.080;11.896;2023-01-23T16:55:16;97456.00;;;2.70
33267;BMP180;19638;49.080;11.896;2023-01-23T16:59:33;97469.00;;;2.70
33267;BMP180;19638;49.080;11.896;2023-01-23T17:03:39;97452.00;;;2.70
33267;BMP180;19638;49.080;11.896;2023-01-23T17:07:45;97453.00;;;2.70
33267;BMP180;19638;49.080;11.896;2023-01-23T17:11:54;97467.00;;;2.70
33267;BMP180;19638;49.080;11.896;2023-01-23T17:16:02;97464.00;;;2.70
33267;BMP180;19638;49.080;11.896;2023-01-23T17:20:16;97472.00;;;2.70
33267;BMP180;19638;49.080;11.896;2023-01-23T17:24:22;97476.00;;;2.70
33267;BMP180;19638;49.080;11.896;2023-01-23T17:28:27;97469.00;;;2.70
33267;BMP180;19638;49.080;11.896;2023-01-23T17:32:33;97477.00;;;2.70
33267;BMP180;19638;49.080;11.896;2023-01-23T17:36:39;97467.00;;;2.70
33267;BMP180;19638;49.080;11.896;2023-01-23T17:40:43;97478.00;;;2.70
33267;BMP180;19638;49.080;11.896;2023-01-23T17:44:50;97494.00;;;2.70
33267;BMP180;19638;49.080;11.896;2023-01-23T17:48:58;97489.00;;;2.70
33267;BMP180;19638;49.080;11.896;2023-01-23T17:53:03;97494.00;;;2.70
33267;BMP180;19638;49.080;11.896;2023-01-23T17:57:06;97492.00;;;2.60
33267;BMP180;19638;49.080;11.896;2023-01-23T18:01:22;97497.00;;;2.60
33267;BMP180;19638;49.080;11.896;2023-01-23T18:05:27;97518.00;;;2.60
33267;BMP180;19638;49.080;11.896;2023-01-23T18:09:33;97519.00;;;2.60
33267;BMP180;19638;49.080;11.896;2023-01-23T18:13:45;97528.00;;;2.60
33267;BMP180;19638;49.080;11.896;2023-01-23T18:18:03;97528.00;;;2.60
33267;BMP180;19638;49.080;11.896;2023-01-23T18:22:13;97526.00;;;2.60
33267;BMP180;19638;49.080;11.896;2023-01-23T18:26:25;97532.00;;;2.60
33267;BMP180;19638;49.080;11.896;2023-01-23T18:30:41;97529.00;;;2.60
33267;BMP180;19638;49.080;11.896;2023-01-23T18:34:52;97536.00;;;2.60
33267;BMP180;19638;49.080;11.896;2023-01-23T18:39:12;97517.00;;;2.60
33267;BMP180;19638;49.080;11.896;2023-01-23T18:43:29;97530.00;;;2.60
33267;BMP180;19638;49.080;11.896;2023-01-23T18:47:37;97537.00;;;2.60
33267;BMP180;19638;49.080;11.896;2023-01-23T18:51:45;97540.00;;;2.60
33267;BMP180;19638;49.080;11.896;2023-01-23T18:55:55;97543.00;;;2.50
33267;BMP180;19638;49.080;11.896;2023-01-23T19:00:09;97537.00;;;2.50
33267;BMP180;19638;49.080;11.896;2023-01-23T19:04:17;97531.00;;;2.50
33267;BMP180;19638;49.080;11.896;2023-01-23T19:08:26;97518.00;;;2.60
33267;BMP180;19638;49.080;11.896;2023-01-23T19:12:36;97533.00;;;2.60
33267;BMP180;19638;49.080;11.896;2023-01-23T19:16:46;97528.00;;;2.50
33267;BMP180;19638;49.080;11.896;2023-01-23T19:20:56;97547.00;;;2.60
33267;BMP180;19638;49.080;11.896;2023-01-23T19:25:09;97545.00;;;2.50
33267;BMP180;19638;49.080;11.896;2023-01-23T19:29:17;97545.00;;;2.50
33267;BMP180;19638;49.080;11.896;2023-01-23T19:33:23;97545.00;;;2.50
33267;BMP180;19638;49.080;11.896;2023-01-23T19:37:30;97558.00;;;2.50
33267;BMP180;19638;49.080;11.896;2023-01-23T19:41:39;97554.00;;;2.50
33267;BMP180;19638;49.080;11.896;2023-01-23T19:45:45;97547.00;;;2.60
33267;BMP180;19638;49.080;11.896;2023-01-23T19:49:52;97564.00;;;2.60
33267;BMP180;19638;49.080;11.896;2023-01-23T19:54:01;97559.00;;;2.60
33267;BMP180;19638;49.080;11.896;2023-01-23T19:58:10;97556.00;;;2.60
33267;BMP180;19638;49.080;11.896;2023-01-23T20:02:16;97561.00;;;2.60
33267;BMP180;19638;49.080;11.896;2023-01-23T20:06:23;97544.00;;;2.70
33267;BMP180;19638;49.080;11.896;2023-01-23T20:10:29;97547.00;;;2.60
33267;BMP180;19638;49.080;11.896;2023-01-23T20:14:40;97562.00;;;2.70
33267;BMP180;19638;49.080;11.896;2023-01-23T20:18:43;97559.00;;;2.60
33267;BMP180;19638;49.080;11.896;2023-01-23T20:22:49;97557.00;;;2.60
33267;BMP180;19638;49.080;11.896;2023-01-23T20:26:52;97553.00;;;2.60
33267;BMP180;19638;49.080;11.896;2023-01-23T20:31:07;97554.00;;;2.70
33267;BMP180;19638;49.080;11.896;2023-01-23T20:35:11;97553.00;;;2.60
33267;BMP180;19638;49.080;11.896;2023-01-23T20:39:14;97561.00;;;2.70
33267;BMP180;19638;49.080;11.896;2023-01-23T20:43:19;97553.00;;;2.70
33267;BMP180;19638;49.080;11.896;2023-01-23T20:47:28;97555.00;;;2.70
33267;BMP180;19638;49.080;11.896;2023-01-23T20:51:31;97552.00;;;2.70
33267;BMP180;19638;49.080;11.896;2023-01-23T20:55:34;97555.00;;;2.70
33267;BMP180;19638;49.080;11.896;2023-01-23T20:59:37;97561.00;;;2.70
33267;BMP180;19638;49.080;11.896;2023-01-23T21:03:53;97559.00;;;2.70
33267;BMP180;19638;49.080;11.896;2023-01-23T21:07:56;97558.00;;;2.70
33267;BMP180;19638;49.080;11.896;2023-01-23T21:12:00;97553.00;;;2.80
33267;BMP180;19638;49.080;11.896;2023-01-23T21:16:12;97561.00;;;2.70
33267;BMP180;19638;49.080;11.896;2023-01-23T21:20:19;97563.00;;;2.70
33267;BMP180;19638;49.080;11.896;2023-01-23T21:24:23;97568.00;;;2.70
33267;BMP180;19638;49.080;11.896;2023-01-23T21:28:27;97569.00;;;2.70
33267;BMP180;19638;49.080;11.896;2023-01-23T21:32:33;97579.00;;;2.80
33267;BMP180;19638;49.080;11.896;2023-01-23T21:36:41;97577.00;;;2.80
33267;BMP180;19638;49.080;11.896;2023-01-23T21:40:45;97586.00;;;2.80
33267;BMP180;19638;49.080;11.896;2023-01-23T21:44:48;97598.00;;;2.80
33267;BMP180;19638;49.080;11.896;2023-01-23T21:48:55;97603.00;;;2.80
33267;BMP180;19638;49.080;11.896;2023-01-23T21:52:59;97588.00;;;2.80
33267;BMP180;19638;49.080;11.896;2023-01-23T21:57:02;97599.00;;;2.90
33267;BMP180;19638;49.080;11.896;2023-01-23T22:01:10;97609.00;;;2.90
33267;BMP180;19638;49.080;11.896;2023-01-23T22:05:35;97615.00;;;2.80
33267;BMP180;19638;49.080;11.896;2023-01-23T22:09:41;97612.00;;;2.90
33267;BMP180;19638;49.080;11.896;2023-01-23T22:13:44;97606.00;;;2.90
33267;BMP180;19638;49.080;11.896;2023-01-23T22:17:48;97611.00;;;2.90
33267;BMP180;19638;49.080;11.896;2023-01-23T22:21:51;97597.00;;;2.90
33267;BMP180;19638;49.080;11.896;2023-01-23T22:25:58;97613.00;;;2.80
33267;BMP180;19638;49.080;11.896;2023-01-23T22:30:02;97597.00;;;2.80
33267;BMP180;19638;49.080;11.896;2023-01-23T22:34:11;97600.00;;;2.90
33267;BMP180;19638;49.080;11.896;2023-01-23T22:38:15;97606.00;;;2.80
33267;BMP180;19638;49.080;11.896;2023-01-23T22:42:19;97598.00;;;2.80
33267;BMP180;19638;49.080;11.896;2023-01-23T22:46:24;97604.00;;;2.80
33267;BMP180;19638;49.080;11.896;2023-01-23T22:50:34;97613.00;;;2.90
33267;BMP180;19638;49.080;11.896;2023-01-23T22:54:37;97625.00;;;2.80
33267;BMP180;19638;49.080;11.896;2023-01-23T22:58:47;97620.00;;;2.90
33267;BMP180;19638;49.080;11.896;2023-01-23T23:02:50;97624.00;;;2.90
33267;BMP180;19638;49.080;11.896;2023-01-23T23:06:57;97614.00;;;2.80
33267;BMP180;19638;49.080;11.896;2023-01-23T23:11:01;97633.00;;;2.80
33267;BMP180;19638;49.080;11.896;2023-01-23T23:15:08;97629.00;;;2.70
33267;BMP180;19638;49.080;11.896;2023-01-23T23:19:12;97623.00;;;2.70
33267;BMP180;19638;49.080;11.896;2023-01-23T23:23:17;97621.00;;;2.70
33267;BMP180;19638;49.080;11.896;2023-01-23T23:27:22;97615.00;;;2.70
33267;BMP180;19638;49.080;11.896;2023-01-23T23:31:28;97627.00;;;2.70
33267;BMP180;19638;49.080;11.896;2023-01-23T23:35:32;97628.00;;;2.70
33267;BMP180;19638;49.080;11.896;2023-01-23T23:39:38;97623.00;;;2.70
33267;BMP180;19638;49.080;11.896;2023-01-23T23:43:42;97623.00;;;2.70
33267;BMP180;19638;49.080;11.896;2023-01-23T23:47:48;97634.00;;;2.70
33267;BMP180;19638;49.080;11.896;2023-01-23T23:51:54;97640.00;;;2.70
33267;BMP180;19638;49.080;11.896;2023-01-23T23:55:57;97640.00;;;2.70
